createdAt,value
2022-09-21T00:00:51.605Z,10.45
2022-09-21T00:03:38.314Z,6.13
2022-09-21T00:06:26.547Z,9.45
2022-09-21T00:09:12.839Z,9.93
2022-09-21T00:11:58.947Z,7.28
2022-09-21T00:14:45.345Z,6.55
2022-09-21T00:17:33.303Z,9.43
2022-09-21T00:20:20.095Z,10.43
2022-09-21T00:23:06.544Z,8.23
2022-09-21T00:25:53.071Z,7.30
2022-09-21T00:28:40.531Z,5.93
2022-09-21T00:31:28.308Z,7.20
2022-09-21T00:34:14.086Z,9.13
2022-09-21T00:37:00.539Z,5.90
2022-09-21T00:39:46.872Z,6.38
2022-09-21T00:42:35.810Z,6.43
2022-09-21T00:45:23.552Z,7.25
2022-09-21T00:48:10.059Z,6.15
2022-09-21T00:50:59.379Z,6.75
2022-09-21T00:53:47.819Z,7.68
2022-09-21T00:56:36.621Z,9.13
2022-09-21T00:59:26.783Z,6.82
2022-09-21T01:02:16.977Z,10.73
2022-09-21T01:05:06.248Z,7.50
2022-09-21T01:07:53.072Z,10.13
2022-09-21T01:10:51.735Z,8.57
2022-09-21T01:14:08.042Z,7.82
2022-09-21T01:16:53.971Z,10.35
2022-09-21T01:19:58.104Z,8.65
2022-09-21T01:23:07.459Z,8.95
2022-09-21T01:26:35.856Z,7.18
2022-09-21T01:29:49.768Z,7.25
2022-09-21T01:33:04.446Z,7.95
2022-09-21T01:35:58.016Z,9.20
2022-09-21T01:38:52.343Z,11.18
2022-09-21T01:41:41.583Z,8.45
2022-09-21T01:44:33.510Z,8.63
2022-09-21T01:47:20.219Z,8.05
2022-09-21T01:50:09.570Z,9.70
2022-09-21T01:52:58.820Z,10.73
2022-09-21T01:55:51.771Z,8.27
2022-09-21T01:58:53.326Z,10.48
2022-09-21T02:01:49.304Z,8.10
2022-09-21T02:04:35.783Z,7.82
2022-09-21T02:07:21.801Z,9.23
2022-09-21T02:10:11.295Z,8.73
2022-09-21T02:13:01.608Z,9.07
2022-09-21T02:16:15.114Z,9.27
2022-09-21T02:19:28.731Z,6.55
2022-09-21T02:22:17.687Z,7.22
2022-09-21T02:25:18.286Z,9.55
2022-09-21T02:28:31.364Z,8.20
2022-09-21T02:31:33.433Z,9.18
2022-09-21T02:34:33.539Z,8.43
2022-09-21T02:37:48.556Z,10.25
2022-09-21T02:41:03.979Z,13.50
2022-09-21T02:44:00.070Z,7.05
2022-09-21T02:47:21.086Z,8.07
2022-09-21T02:50:14.379Z,8.43
2022-09-21T02:53:04.830Z,7.05
2022-09-21T02:55:56.284Z,6.63
2022-09-21T02:58:48.010Z,11.88
2022-09-21T03:01:34.722Z,7.32
2022-09-21T03:04:21.624Z,11.18
2022-09-21T03:07:10.480Z,7.18
2022-09-21T03:09:57.056Z,7.28
2022-09-21T03:12:45.701Z,8.25
2022-09-21T03:15:31.616Z,6.43
2022-09-21T03:18:17.545Z,7.45
2022-09-21T03:21:03.641Z,8.68
2022-09-21T03:23:49.863Z,7.75
2022-09-21T03:26:36.603Z,7.38
2022-09-21T03:29:22.540Z,7.68
2022-09-21T03:32:08.736Z,8.20
2022-09-21T03:34:55.736Z,8.95
2022-09-21T03:37:42.112Z,7.03
2022-09-21T03:40:28.529Z,8.05
2022-09-21T03:43:15.219Z,7.40
2022-09-21T03:46:01.341Z,7.40
2022-09-21T03:48:48.319Z,7.32
2022-09-21T03:51:34.646Z,8.20
2022-09-21T03:54:20.412Z,7.47
2022-09-21T03:57:06.390Z,8.30
2022-09-21T03:59:54.300Z,7.43
2022-09-21T04:02:41.424Z,9.00
2022-09-21T04:05:27.780Z,8.52
2022-09-21T04:08:13.796Z,7.28
2022-09-21T04:11:00.104Z,8.75
2022-09-21T04:13:57.153Z,7.32
2022-09-21T04:16:43.114Z,7.55
2022-09-21T04:19:29.131Z,6.90
2022-09-21T04:22:15.400Z,8.00
2022-09-21T04:25:02.217Z,7.85
2022-09-21T04:27:48.740Z,8.45
2022-09-21T04:30:37.826Z,7.28
2022-09-21T04:33:23.933Z,7.22
2022-09-21T04:36:10.630Z,8.07
2022-09-21T04:38:57.911Z,8.43
2022-09-21T04:41:43.973Z,6.90
2022-09-21T04:44:30.909Z,7.95
2022-09-21T04:47:17.067Z,8.60
2022-09-21T04:50:02.981Z,9.15
2022-09-21T04:52:48.989Z,7.45
2022-09-21T04:55:35.460Z,8.65
2022-09-21T04:58:24.944Z,17.88
2022-09-21T05:01:11.747Z,7.63
2022-09-21T05:04:02.752Z,7.53
2022-09-21T05:06:49.395Z,9.52
2022-09-21T05:09:53.885Z,9.55
2022-09-21T05:12:41.265Z,9.75
2022-09-21T05:15:27.402Z,8.10
2022-09-21T05:18:13.771Z,7.13
2022-09-21T05:21:01.872Z,8.05
2022-09-21T05:23:47.853Z,9.73
2022-09-21T05:26:33.792Z,8.27
2022-09-21T05:29:20.089Z,8.85
2022-09-21T05:32:28.537Z,7.25
2022-09-21T05:36:02.692Z,9.63
2022-09-21T05:38:48.803Z,7.05
2022-09-21T05:41:35.252Z,10.98
2022-09-21T05:44:21.904Z,8.43
2022-09-21T05:47:40.517Z,7.80
2022-09-21T05:50:57.293Z,8.48
2022-09-21T05:53:48.530Z,8.48
2022-09-21T05:56:48.898Z,7.38
2022-09-21T05:59:57.243Z,10.13
2022-09-21T06:03:20.904Z,6.65
2022-09-21T06:06:08.739Z,8.50
2022-09-21T06:08:54.706Z,6.82
2022-09-21T06:11:40.794Z,10.00
2022-09-21T06:14:27.955Z,14.38
2022-09-21T06:17:14.315Z,8.32
2022-09-21T06:20:00.669Z,8.68
2022-09-21T06:22:46.751Z,11.82
2022-09-21T06:25:32.902Z,7.45
2022-09-21T06:28:19.007Z,9.25
2022-09-21T06:31:05.116Z,7.70
2022-09-21T06:33:51.092Z,7.28
2022-09-21T06:36:37.063Z,11.15
2022-09-21T06:39:23.200Z,8.43
2022-09-21T06:42:09.298Z,9.13
2022-09-21T06:44:55.636Z,7.15
2022-09-21T06:47:47.559Z,11.88
2022-09-21T06:50:33.759Z,8.57
2022-09-21T06:53:20.535Z,8.75
2022-09-21T06:56:08.986Z,6.82
2022-09-21T06:58:55.262Z,8.82
2022-09-21T07:01:41.542Z,7.75
2022-09-21T07:04:29.362Z,9.38
2022-09-21T07:07:15.857Z,7.32
2022-09-21T07:10:07.007Z,8.10
2022-09-21T07:12:53.900Z,6.47
2022-09-21T07:15:39.684Z,10.13
2022-09-21T07:18:26.135Z,7.50
2022-09-21T07:21:12.557Z,8.88
2022-09-21T07:24:06.237Z,8.52
2022-09-21T07:26:55.627Z,8.73
2022-09-21T07:29:42.827Z,5.95
2022-09-21T07:32:30.889Z,7.78
2022-09-21T07:35:17.699Z,10.57
2022-09-21T07:38:06.833Z,7.05
2022-09-21T07:40:53.201Z,8.27
2022-09-21T07:43:40.444Z,9.40
2022-09-21T07:46:26.577Z,8.10
2022-09-21T07:49:13.448Z,8.32
2022-09-21T07:52:04.246Z,7.95
2022-09-21T07:54:51.679Z,10.82
2022-09-21T07:57:56.326Z,12.02
2022-09-21T08:00:42.873Z,7.40
2022-09-21T08:03:29.020Z,6.55
2022-09-21T08:06:14.935Z,9.70
2022-09-21T08:09:01.530Z,7.28
2022-09-21T08:11:47.704Z,7.68
2022-09-21T08:14:34.826Z,7.20
2022-09-21T08:17:24.860Z,9.32
2022-09-21T08:20:11.428Z,7.80
2022-09-21T08:22:57.389Z,11.68
2022-09-21T08:25:44.594Z,8.80
2022-09-21T08:28:31.298Z,7.65
2022-09-21T08:31:20.889Z,8.80
2022-09-21T08:34:07.466Z,6.82
2022-09-21T08:36:55.772Z,8.73
2022-09-21T08:39:42.308Z,7.90
2022-09-21T08:42:34.250Z,11.88
2022-09-21T08:45:22.334Z,10.07
2022-09-21T08:48:18.404Z,12.27
2022-09-21T08:51:16.094Z,8.73
2022-09-21T08:54:35.749Z,11.57
2022-09-21T08:57:25.911Z,12.93
2022-09-21T09:00:17.023Z,14.15
2022-09-21T09:03:16.774Z,10.20
2022-09-21T09:06:15.509Z,7.85
2022-09-21T09:09:10.610Z,7.50
2022-09-21T09:12:41.538Z,6.32
2022-09-21T09:15:33.917Z,9.82
2022-09-21T09:18:42.734Z,8.50
2022-09-21T09:21:35.468Z,6.78
2022-09-21T09:24:50.259Z,13.55
2022-09-21T09:27:41.715Z,11.15
2022-09-21T09:30:32.002Z,6.10
2022-09-21T09:33:58.634Z,6.85
2022-09-21T09:37:04.344Z,11.80
2022-09-21T09:39:57.080Z,8.10
2022-09-21T09:43:04.836Z,6.95
2022-09-21T09:46:13.002Z,10.00
2022-09-21T09:49:33.645Z,9.48
2022-09-21T09:52:19.956Z,8.00
2022-09-21T09:55:24.472Z,10.93
2022-09-21T09:58:21.708Z,11.88
2022-09-21T10:01:07.832Z,11.23
2022-09-21T10:04:13.956Z,14.10
2022-09-21T10:06:59.759Z,33.22
2022-09-21T10:09:45.715Z,16.58
2022-09-21T10:12:31.688Z,18.35
2022-09-21T10:15:18.573Z,16.00
2022-09-21T10:18:18.653Z,12.55
2022-09-21T10:21:21.308Z,13.68
2022-09-21T10:24:24.655Z,16.75
2022-09-21T10:27:11.653Z,13.15
2022-09-21T10:29:57.853Z,14.63
2022-09-21T10:32:55.515Z,12.20
2022-09-21T10:35:50.798Z,13.38
2022-09-21T10:38:37.018Z,15.32
2022-09-21T10:41:23.428Z,15.73
2022-09-21T10:44:18.363Z,12.15
2022-09-21T10:47:21.483Z,13.57
2022-09-21T10:50:30.930Z,11.70
2022-09-21T10:53:22.846Z,13.70
2022-09-21T10:56:18.770Z,10.07
2022-09-21T10:59:25.495Z,10.93
2022-09-21T11:02:35.291Z,8.32
2022-09-21T11:05:29.648Z,6.68
2022-09-21T11:08:23.996Z,6.53
2022-09-21T11:11:21.831Z,4.57
2022-09-21T11:14:22.993Z,4.18
2022-09-21T11:17:27.716Z,5.07
2022-09-21T11:20:13.948Z,6.30
2022-09-21T11:23:11.507Z,4.05
2022-09-21T11:26:21.575Z,4.50
2022-09-21T11:29:38.660Z,7.20
2022-09-21T11:32:52.539Z,4.40
2022-09-21T11:35:50.719Z,5.40
2022-09-21T11:38:52.549Z,5.50
2022-09-21T11:41:57.633Z,5.28
2022-09-21T11:44:57.208Z,3.97
2022-09-21T11:48:10.070Z,4.25
2022-09-21T11:51:17.911Z,5.75
2022-09-21T11:54:34.773Z,3.50
2022-09-21T11:57:28.523Z,4.15
2022-09-21T12:00:22.199Z,6.07
2022-09-21T12:03:26.607Z,4.22
2022-09-21T12:09:26.498Z,4.95
2022-09-21T12:12:31.290Z,4.25
2022-09-21T12:15:22.575Z,4.65
2022-09-21T12:18:24.049Z,5.32
2022-09-21T12:21:30.273Z,4.90
2022-09-21T12:24:38.933Z,3.55
2022-09-21T12:27:30.857Z,3.78
2022-09-21T12:30:20.583Z,6.38
2022-09-21T12:33:35.912Z,6.57
2022-09-21T12:36:25.566Z,3.70
2022-09-21T12:39:37.333Z,3.47
2022-09-21T12:42:30.954Z,3.70
2022-09-21T12:45:23.002Z,3.97
2022-09-21T12:48:24.322Z,3.22
2022-09-21T12:51:38.811Z,3.88
2022-09-21T12:54:49.252Z,2.92
2022-09-21T12:58:04.529Z,3.05
2022-09-21T13:01:26.946Z,2.97
2022-09-21T13:04:31.455Z,5.78
2022-09-21T13:07:39.842Z,4.30
2022-09-21T13:10:31.366Z,3.13
2022-09-21T13:13:40.019Z,3.65
2022-09-21T13:16:30.604Z,4.40
2022-09-21T13:19:25.541Z,5.03
2022-09-21T13:22:26.805Z,4.78
2022-09-21T13:25:21.448Z,3.70
2022-09-21T13:28:13.587Z,3.63
2022-09-21T13:31:10.038Z,4.15
2022-09-21T13:34:16.088Z,2.92
2022-09-21T13:37:20.216Z,3.33
2022-09-21T13:40:06.292Z,4.22
2022-09-21T13:42:53.109Z,3.05
2022-09-21T13:45:39.883Z,2.58
2022-09-21T13:48:29.785Z,3.33
2022-09-21T13:51:17.530Z,4.57
2022-09-21T13:54:04.634Z,2.85
2022-09-21T13:57:21.065Z,2.65
2022-09-21T14:00:13.174Z,3.83
2022-09-21T14:03:06.489Z,4.60
2022-09-21T14:06:00.248Z,2.70
2022-09-21T14:08:51.660Z,3.10
2022-09-21T14:11:41.791Z,4.07
2022-09-21T14:14:37.707Z,2.42
2022-09-21T14:17:40.864Z,3.15
2022-09-21T14:20:37.135Z,2.70
2022-09-21T14:23:28.852Z,2.50
2022-09-21T14:26:44.156Z,2.58
2022-09-21T14:29:50.345Z,3.13
2022-09-21T14:32:57.306Z,7.10
2022-09-21T14:35:47.515Z,2.15
2022-09-21T14:38:51.618Z,2.97
2022-09-21T14:41:43.114Z,3.60
2022-09-21T14:44:31.691Z,3.55
2022-09-21T14:47:29.656Z,3.22
2022-09-21T14:50:36.541Z,4.07
2022-09-21T14:53:48.110Z,6.30
2022-09-21T14:57:15.584Z,4.05
2022-09-21T15:00:20.947Z,4.45
2022-09-21T15:03:22.285Z,4.13
2022-09-21T15:06:45.191Z,4.03
2022-09-21T15:10:09.468Z,4.28
2022-09-21T15:13:00.466Z,4.32
2022-09-21T15:16:07.122Z,3.67
2022-09-21T15:19:13.847Z,4.85
2022-09-21T15:22:20.887Z,3.35
2022-09-21T15:25:13.206Z,6.28
2022-09-21T15:28:00.205Z,5.32
2022-09-21T15:30:46.669Z,5.55
2022-09-21T15:33:38.199Z,5.18
2022-09-21T15:36:26.926Z,6.18
2022-09-21T15:39:26.146Z,5.70
2022-09-21T15:42:23.459Z,4.65
2022-09-21T15:45:18.670Z,3.58
2022-09-21T15:48:12.882Z,3.25
2022-09-21T15:51:35.619Z,4.00
2022-09-21T15:54:32.366Z,4.28
2022-09-21T15:57:40.360Z,3.28
2022-09-21T16:00:33.052Z,3.97
2022-09-21T16:03:22.780Z,3.92
2022-09-21T16:06:28.572Z,3.90
2022-09-21T16:09:45.191Z,4.68
2022-09-21T16:12:40.099Z,3.28
2022-09-21T16:15:29.215Z,4.85
2022-09-21T16:18:35.670Z,5.97
2022-09-21T16:21:33.958Z,5.40
2022-09-21T16:24:26.009Z,3.83
2022-09-21T16:27:18.179Z,4.65
2022-09-21T16:30:04.772Z,3.53
2022-09-21T16:32:52.270Z,3.42
2022-09-21T16:35:40.849Z,4.07
2022-09-21T16:38:27.343Z,3.70
2022-09-21T16:41:14.601Z,3.63
2022-09-21T16:44:04.050Z,2.75
2022-09-21T16:46:56.559Z,3.10
2022-09-21T16:49:42.729Z,2.88
2022-09-21T16:52:30.571Z,6.20
2022-09-21T16:55:16.428Z,4.72
2022-09-21T16:58:02.859Z,3.53
2022-09-21T17:01:00.016Z,5.38
2022-09-21T17:03:48.000Z,3.28
2022-09-21T17:06:36.717Z,3.17
2022-09-21T17:09:29.251Z,4.82
2022-09-21T17:12:18.058Z,3.33
2022-09-21T17:15:04.987Z,4.30
2022-09-21T17:17:52.046Z,2.97
2022-09-21T17:20:41.667Z,2.97
2022-09-21T17:23:29.162Z,3.08
2022-09-21T17:26:21.336Z,3.50
2022-09-21T17:29:28.055Z,2.80
2022-09-21T17:32:15.399Z,4.35
2022-09-21T17:35:21.885Z,3.30
2022-09-21T17:38:13.918Z,4.35
2022-09-21T17:41:02.901Z,4.40
2022-09-21T17:44:27.259Z,6.68
2022-09-21T17:50:25.574Z,6.85
2022-09-21T17:53:31.211Z,4.28
2022-09-21T17:56:36.573Z,5.50
2022-09-21T17:59:36.206Z,4.50
2022-09-21T18:02:24.284Z,4.30
2022-09-21T18:05:28.182Z,4.03
2022-09-21T18:11:23.179Z,4.78
2022-09-21T18:14:17.386Z,7.10
2022-09-21T18:20:30.081Z,7.20
2022-09-21T18:23:31.311Z,6.15
2022-09-21T18:26:18.284Z,4.93
2022-09-21T18:29:22.433Z,7.60
2022-09-21T18:32:43.394Z,5.88
2022-09-21T18:35:47.057Z,6.65
2022-09-21T18:39:13.696Z,5.75
2022-09-21T18:42:40.306Z,7.28
2022-09-21T18:45:38.038Z,5.82
2022-09-21T18:48:48.548Z,24.48
2022-09-21T18:51:50.357Z,43.38
2022-09-21T18:54:36.665Z,64.63
2022-09-21T18:57:23.406Z,42.63
2022-09-21T19:00:12.505Z,24.83
2022-09-21T19:03:16.534Z,16.52
2022-09-21T19:06:29.720Z,9.73
2022-09-21T19:09:44.856Z,9.63
2022-09-21T19:13:00.105Z,10.65
2022-09-21T19:16:23.436Z,8.95
2022-09-21T19:19:34.414Z,8.27
2022-09-21T19:22:48.925Z,6.38
2022-09-21T19:25:49.331Z,7.13
2022-09-21T19:28:45.119Z,5.43
2022-09-21T19:31:31.396Z,9.85
2022-09-21T19:34:19.447Z,15.00
2022-09-21T19:37:07.877Z,8.40
2022-09-21T19:39:54.294Z,6.93
2022-09-21T19:43:21.707Z,7.88
2022-09-21T19:46:25.208Z,7.28
2022-09-21T19:49:18.292Z,5.73
2022-09-21T19:52:05.670Z,8.10
2022-09-21T19:55:10.170Z,10.57
2022-09-21T19:58:14.591Z,7.65
2022-09-21T20:01:00.684Z,14.43
2022-09-21T20:03:48.544Z,7.63
2022-09-21T20:06:44.015Z,8.32
2022-09-21T20:09:37.360Z,8.75
2022-09-21T20:12:33.122Z,6.25
2022-09-21T20:15:29.467Z,7.70
2022-09-21T20:18:42.366Z,6.85
2022-09-21T20:21:48.422Z,6.18
2022-09-21T20:24:58.032Z,7.53
2022-09-21T20:27:51.124Z,7.05
2022-09-21T20:30:40.148Z,8.57
2022-09-21T20:33:27.998Z,7.82
2022-09-21T20:36:16.947Z,6.90
2022-09-21T20:39:04.161Z,6.45
2022-09-21T20:41:50.087Z,7.43
2022-09-21T20:44:36.098Z,6.13
2022-09-21T20:47:22.087Z,5.88
2022-09-21T20:50:11.614Z,10.70
2022-09-21T20:52:57.799Z,8.05
2022-09-21T20:55:52.395Z,7.40
2022-09-21T20:58:38.603Z,8.05
2022-09-21T21:01:24.936Z,7.47
2022-09-21T21:04:12.619Z,9.27
2022-09-21T21:06:58.706Z,8.20
2022-09-21T21:09:44.504Z,7.82
2022-09-21T21:12:30.559Z,7.32
2022-09-21T21:15:17.152Z,7.22
2022-09-21T21:18:03.236Z,8.18
2022-09-21T21:20:50.079Z,8.38
2022-09-21T21:23:56.596Z,7.38
2022-09-21T21:27:02.179Z,7.65
2022-09-21T21:29:50.633Z,5.32
2022-09-21T21:32:39.367Z,7.13
2022-09-21T21:35:25.875Z,8.55
2022-09-21T21:38:13.457Z,7.90
2022-09-21T21:41:01.286Z,5.90
2022-09-21T21:43:47.179Z,6.88
2022-09-21T21:46:33.885Z,6.75
2022-09-21T21:49:20.936Z,8.20
2022-09-21T21:52:08.294Z,9.77
2022-09-21T21:54:54.935Z,8.75
2022-09-21T21:57:40.947Z,7.25
2022-09-21T22:00:26.794Z,6.72
2022-09-21T22:03:13.588Z,6.65
2022-09-21T22:05:59.711Z,8.77
2022-09-21T22:08:46.080Z,7.15
2022-09-21T22:11:33.431Z,9.02
2022-09-21T22:14:23.045Z,7.88
2022-09-21T22:17:08.962Z,7.35
2022-09-21T22:19:55.701Z,7.72
2022-09-21T22:22:41.721Z,7.15
2022-09-21T22:25:28.331Z,7.57
2022-09-21T22:28:14.616Z,6.90
2022-09-21T22:31:01.832Z,7.05
2022-09-21T22:33:48.750Z,8.23
2022-09-21T22:36:36.715Z,10.88
2022-09-21T22:39:22.814Z,6.43
2022-09-21T22:42:11.246Z,6.88
2022-09-21T22:44:59.697Z,5.72
2022-09-21T22:47:46.680Z,5.90
2022-09-21T22:50:32.934Z,5.70
2022-09-21T22:53:19.160Z,6.28
2022-09-21T22:56:14.716Z,6.85
2022-09-21T22:59:02.668Z,6.38
2022-09-21T23:01:48.595Z,5.50
2022-09-21T23:04:34.709Z,5.70
2022-09-21T23:07:20.737Z,6.05
2022-09-21T23:10:07.412Z,7.15
2022-09-21T23:12:54.036Z,8.27
2022-09-21T23:15:40.163Z,6.90
2022-09-21T23:18:26.787Z,7.55
2022-09-21T23:21:15.531Z,9.05
2022-09-21T23:24:02.653Z,7.78
2022-09-21T23:26:51.577Z,6.60
2022-09-21T23:29:38.156Z,7.78
2022-09-21T23:32:25.280Z,6.05
2022-09-21T23:35:11.308Z,6.82
2022-09-21T23:37:57.498Z,8.98
2022-09-21T23:40:43.562Z,7.55
2022-09-21T23:43:29.655Z,5.38
2022-09-21T23:46:20.677Z,6.50
2022-09-21T23:49:06.901Z,9.32
2022-09-21T23:51:53.032Z,7.53
2022-09-21T23:54:39.378Z,8.75
2022-09-21T23:57:25.521Z,6.75
